sensor_id;sensor_type;location;lat;lon;timestamp;P1;durP1;ratioP1;P2;durP2;ratioP2
62362;SDS011;48396;48.426;1.500;2023-04-24T00:01:13;6.90;;;3.30;;
62362;SDS011;48396;48.426;1.500;2023-04-24T00:03:40;9.40;;;3.47;;
62362;SDS011;48396;48.426;1.500;2023-04-24T00:06:06;6.07;;;3.20;;
62362;SDS011;48396;48.426;1.500;2023-04-24T00:08:33;6.97;;;3.13;;
62362;SDS011;48396;48.426;1.500;2023-04-24T00:10:59;11.30;;;3.33;;
62362;SDS011;48396;48.426;1.500;2023-04-24T00:13:25;6.85;;;2.70;;
62362;SDS011;48396;48.426;1.500;2023-04-24T00:15:50;6.45;;;3.22;;
62362;SDS011;48396;48.426;1.500;2023-04-24T00:18:16;9.45;;;3.22;;
62362;SDS011;48396;48.426;1.500;2023-04-24T00:20:42;4.00;;;2.60;;
62362;SDS011;48396;48.426;1.500;2023-04-24T00:23:08;7.75;;;3.28;;
62362;SDS011;48396;48.426;1.500;2023-04-24T00:25:34;7.68;;;3.08;;
62362;SDS011;48396;48.426;1.500;2023-04-24T00:28:00;7.00;;;3.00;;
62362;SDS011;48396;48.426;1.500;2023-04-24T00:30:26;7.75;;;3.30;;
62362;SDS011;48396;48.426;1.500;2023-04-24T00:32:52;8.10;;;3.35;;
62362;SDS011;48396;48.426;1.500;2023-04-24T00:35:18;8.55;;;3.08;;
62362;SDS011;48396;48.426;1.500;2023-04-24T00:37:44;7.35;;;3.35;;
62362;SDS011;48396;48.426;1.500;2023-04-24T00:40:11;6.25;;;3.22;;
62362;SDS011;48396;48.426;1.500;2023-04-24T00:42:36;8.32;;;3.30;;
62362;SDS011;48396;48.426;1.500;2023-04-24T00:45:02;6.30;;;3.40;;
62362;SDS011;48396;48.426;1.500;2023-04-24T00:47:29;5.45;;;3.40;;
62362;SDS011;48396;48.426;1.500;2023-04-24T00:49:55;8.15;;;3.20;;
62362;SDS011;48396;48.426;1.500;2023-04-24T00:52:20;10.27;;;3.50;;
62362;SDS011;48396;48.426;1.500;2023-04-24T00:54:49;8.40;;;3.00;;
62362;SDS011;48396;48.426;1.500;2023-04-24T00:57:15;6.57;;;3.28;;
62362;SDS011;48396;48.426;1.500;2023-04-24T00:59:41;8.18;;;3.17;;
62362;SDS011;48396;48.426;1.500;2023-04-24T01:02:08;6.75;;;2.90;;
62362;SDS011;48396;48.426;1.500;2023-04-24T01:04:35;8.57;;;3.08;;
62362;SDS011;48396;48.426;1.500;2023-04-24T01:07:01;11.43;;;2.97;;
62362;SDS011;48396;48.426;1.500;2023-04-24T01:09:27;8.57;;;3.38;;
62362;SDS011;48396;48.426;1.500;2023-04-24T01:11:53;9.50;;;3.45;;
62362;SDS011;48396;48.426;1.500;2023-04-24T01:14:19;11.27;;;3.40;;
62362;SDS011;48396;48.426;1.500;2023-04-24T01:16:45;10.85;;;3.40;;
62362;SDS011;48396;48.426;1.500;2023-04-24T01:19:10;12.40;;;3.42;;
62362;SDS011;48396;48.426;1.500;2023-04-24T01:21:37;6.10;;;2.90;;
62362;SDS011;48396;48.426;1.500;2023-04-24T01:24:04;10.02;;;3.33;;
62362;SDS011;48396;48.426;1.500;2023-04-24T01:26:31;8.77;;;3.10;;
62362;SDS011;48396;48.426;1.500;2023-04-24T01:28:56;8.05;;;3.03;;
62362;SDS011;48396;48.426;1.500;2023-04-24T01:31:22;8.25;;;3.28;;
62362;SDS011;48396;48.426;1.500;2023-04-24T01:33:48;7.30;;;3.30;;
62362;SDS011;48396;48.426;1.500;2023-04-24T01:36:14;9.18;;;3.10;;
62362;SDS011;48396;48.426;1.500;2023-04-24T01:38:41;10.48;;;3.40;;
62362;SDS011;48396;48.426;1.500;2023-04-24T01:41:07;8.35;;;3.50;;
62362;SDS011;48396;48.426;1.500;2023-04-24T01:43:32;11.25;;;3.58;;
62362;SDS011;48396;48.426;1.500;2023-04-24T01:45:58;10.15;;;3.30;;
62362;SDS011;48396;48.426;1.500;2023-04-24T01:48:24;10.75;;;3.83;;
62362;SDS011;48396;48.426;1.500;2023-04-24T01:50:50;11.70;;;3.30;;
62362;SDS011;48396;48.426;1.500;2023-04-24T01:53:16;8.02;;;3.40;;
62362;SDS011;48396;48.426;1.500;2023-04-24T01:55:41;8.43;;;3.70;;
62362;SDS011;48396;48.426;1.500;2023-04-24T01:58:07;9.35;;;3.33;;
62362;SDS011;48396;48.426;1.500;2023-04-24T02:00:33;10.00;;;3.38;;
62362;SDS011;48396;48.426;1.500;2023-04-24T02:02:58;6.55;;;3.20;;
62362;SDS011;48396;48.426;1.500;2023-04-24T02:05:24;11.55;;;3.58;;
62362;SDS011;48396;48.426;1.500;2023-04-24T02:07:49;8.73;;;3.08;;
62362;SDS011;48396;48.426;1.500;2023-04-24T02:10:15;8.05;;;3.25;;
62362;SDS011;48396;48.426;1.500;2023-04-24T02:12:41;12.38;;;3.60;;
62362;SDS011;48396;48.426;1.500;2023-04-24T02:15:06;12.05;;;3.40;;
62362;SDS011;48396;48.426;1.500;2023-04-24T02:17:32;11.35;;;3.35;;
62362;SDS011;48396;48.426;1.500;2023-04-24T02:19:58;9.57;;;3.67;;
62362;SDS011;48396;48.426;1.500;2023-04-24T02:22:23;12.13;;;3.58;;
62362;SDS011;48396;48.426;1.500;2023-04-24T02:24:49;10.05;;;3.28;;
62362;SDS011;48396;48.426;1.500;2023-04-24T02:27:14;9.52;;;3.40;;
62362;SDS011;48396;48.426;1.500;2023-04-24T02:29:40;10.75;;;3.63;;
62362;SDS011;48396;48.426;1.500;2023-04-24T02:32:05;11.10;;;3.60;;
62362;SDS011;48396;48.426;1.500;2023-04-24T02:34:31;9.13;;;3.80;;
62362;SDS011;48396;48.426;1.500;2023-04-24T02:36:57;10.35;;;3.75;;
62362;SDS011;48396;48.426;1.500;2023-04-24T02:39:22;7.55;;;3.50;;
62362;SDS011;48396;48.426;1.500;2023-04-24T02:41:48;7.13;;;3.25;;
62362;SDS011;48396;48.426;1.500;2023-04-24T02:44:13;9.90;;;3.50;;
62362;SDS011;48396;48.426;1.500;2023-04-24T02:46:39;9.30;;;3.72;;
62362;SDS011;48396;48.426;1.500;2023-04-24T02:49:06;8.82;;;3.30;;
62362;SDS011;48396;48.426;1.500;2023-04-24T02:51:31;12.02;;;3.75;;
62362;SDS011;48396;48.426;1.500;2023-04-24T02:53:57;9.02;;;3.08;;
62362;SDS011;48396;48.426;1.500;2023-04-24T02:56:22;10.50;;;3.22;;
62362;SDS011;48396;48.426;1.500;2023-04-24T02:58:48;16.63;;;3.75;;
62362;SDS011;48396;48.426;1.500;2023-04-24T03:01:13;7.80;;;3.50;;
62362;SDS011;48396;48.426;1.500;2023-04-24T03:03:39;11.07;;;3.40;;
62362;SDS011;48396;48.426;1.500;2023-04-24T03:06:05;10.88;;;3.78;;
62362;SDS011;48396;48.426;1.500;2023-04-24T03:08:32;12.82;;;3.72;;
62362;SDS011;48396;48.426;1.500;2023-04-24T03:10:58;8.75;;;3.47;;
62362;SDS011;48396;48.426;1.500;2023-04-24T03:13:24;7.60;;;3.20;;
62362;SDS011;48396;48.426;1.500;2023-04-24T03:15:49;10.10;;;3.25;;
62362;SDS011;48396;48.426;1.500;2023-04-24T03:18:15;5.93;;;3.17;;
62362;SDS011;48396;48.426;1.500;2023-04-24T03:20:40;10.07;;;3.40;;
62362;SDS011;48396;48.426;1.500;2023-04-24T03:23:06;7.00;;;3.20;;
62362;SDS011;48396;48.426;1.500;2023-04-24T03:25:32;7.25;;;3.28;;
62362;SDS011;48396;48.426;1.500;2023-04-24T03:27:57;9.77;;;3.42;;
62362;SDS011;48396;48.426;1.500;2023-04-24T03:30:23;7.85;;;3.28;;
62362;SDS011;48396;48.426;1.500;2023-04-24T03:32:49;10.38;;;3.90;;
62362;SDS011;48396;48.426;1.500;2023-04-24T03:35:14;10.52;;;3.42;;
62362;SDS011;48396;48.426;1.500;2023-04-24T03:37:40;11.18;;;3.47;;
62362;SDS011;48396;48.426;1.500;2023-04-24T03:40:06;10.57;;;3.78;;
62362;SDS011;48396;48.426;1.500;2023-04-24T03:42:33;6.78;;;3.20;;
62362;SDS011;48396;48.426;1.500;2023-04-24T03:44:58;7.32;;;3.40;;
62362;SDS011;48396;48.426;1.500;2023-04-24T03:47:24;7.50;;;2.92;;
62362;SDS011;48396;48.426;1.500;2023-04-24T03:49:49;10.55;;;3.25;;
62362;SDS011;48396;48.426;1.500;2023-04-24T03:52:15;7.95;;;3.13;;
62362;SDS011;48396;48.426;1.500;2023-04-24T03:54:40;9.80;;;3.28;;
62362;SDS011;48396;48.426;1.500;2023-04-24T03:57:06;11.05;;;3.50;;
62362;SDS011;48396;48.426;1.500;2023-04-24T03:59:32;8.90;;;3.40;;
62362;SDS011;48396;48.426;1.500;2023-04-24T04:01:57;9.32;;;3.13;;
62362;SDS011;48396;48.426;1.500;2023-04-24T04:04:23;9.70;;;3.17;;
62362;SDS011;48396;48.426;1.500;2023-04-24T04:07:07;8.02;;;3.25;;
62362;SDS011;48396;48.426;1.500;2023-04-24T04:09:33;7.45;;;3.45;;
62362;SDS011;48396;48.426;1.500;2023-04-24T04:11:59;7.80;;;3.25;;
62362;SDS011;48396;48.426;1.500;2023-04-24T04:14:25;7.25;;;3.35;;
62362;SDS011;48396;48.426;1.500;2023-04-24T04:16:51;5.75;;;3.15;;
62362;SDS011;48396;48.426;1.500;2023-04-24T04:19:17;8.73;;;3.67;;
62362;SDS011;48396;48.426;1.500;2023-04-24T04:21:42;9.20;;;3.55;;
62362;SDS011;48396;48.426;1.500;2023-04-24T04:24:10;10.27;;;3.22;;
62362;SDS011;48396;48.426;1.500;2023-04-24T04:26:36;6.32;;;3.38;;
62362;SDS011;48396;48.426;1.500;2023-04-24T04:29:02;9.60;;;3.60;;
62362;SDS011;48396;48.426;1.500;2023-04-24T04:31:28;7.03;;;3.47;;
62362;SDS011;48396;48.426;1.500;2023-04-24T04:33:55;5.07;;;3.00;;
62362;SDS011;48396;48.426;1.500;2023-04-24T04:36:20;6.90;;;3.38;;
62362;SDS011;48396;48.426;1.500;2023-04-24T04:38:46;12.02;;;3.78;;
62362;SDS011;48396;48.426;1.500;2023-04-24T04:41:12;8.77;;;3.50;;
62362;SDS011;48396;48.426;1.500;2023-04-24T04:43:37;11.77;;;3.70;;
62362;SDS011;48396;48.426;1.500;2023-04-24T04:46:05;9.65;;;3.40;;
62362;SDS011;48396;48.426;1.500;2023-04-24T04:48:31;6.28;;;3.30;;
62362;SDS011;48396;48.426;1.500;2023-04-24T04:50:57;5.53;;;3.30;;
62362;SDS011;48396;48.426;1.500;2023-04-24T04:53:23;8.95;;;3.42;;
62362;SDS011;48396;48.426;1.500;2023-04-24T04:55:48;7.65;;;3.85;;
62362;SDS011;48396;48.426;1.500;2023-04-24T04:58:14;7.45;;;3.72;;
62362;SDS011;48396;48.426;1.500;2023-04-24T05:00:39;5.72;;;3.67;;
62362;SDS011;48396;48.426;1.500;2023-04-24T05:03:06;11.13;;;3.58;;
62362;SDS011;48396;48.426;1.500;2023-04-24T05:05:31;7.50;;;3.85;;
62362;SDS011;48396;48.426;1.500;2023-04-24T05:07:57;8.40;;;3.75;;
62362;SDS011;48396;48.426;1.500;2023-04-24T05:10:23;10.70;;;4.05;;
62362;SDS011;48396;48.426;1.500;2023-04-24T05:12:48;13.15;;;4.55;;
62362;SDS011;48396;48.426;1.500;2023-04-24T05:15:14;10.50;;;4.00;;
62362;SDS011;48396;48.426;1.500;2023-04-24T05:17:40;10.60;;;3.97;;
62362;SDS011;48396;48.426;1.500;2023-04-24T05:20:06;10.93;;;3.90;;
62362;SDS011;48396;48.426;1.500;2023-04-24T05:22:32;8.35;;;3.45;;
62362;SDS011;48396;48.426;1.500;2023-04-24T05:24:58;7.72;;;3.72;;
62362;SDS011;48396;48.426;1.500;2023-04-24T05:27:24;10.25;;;3.70;;
62362;SDS011;48396;48.426;1.500;2023-04-24T05:29:49;12.25;;;4.03;;
62362;SDS011;48396;48.426;1.500;2023-04-24T05:32:15;11.90;;;4.00;;
62362;SDS011;48396;48.426;1.500;2023-04-24T05:34:41;8.93;;;3.85;;
62362;SDS011;48396;48.426;1.500;2023-04-24T05:37:07;9.68;;;3.75;;
62362;SDS011;48396;48.426;1.500;2023-04-24T05:39:34;10.27;;;4.03;;
62362;SDS011;48396;48.426;1.500;2023-04-24T05:42:00;10.57;;;4.18;;
62362;SDS011;48396;48.426;1.500;2023-04-24T05:44:26;8.02;;;3.80;;
62362;SDS011;48396;48.426;1.500;2023-04-24T05:46:52;9.05;;;3.60;;
62362;SDS011;48396;48.426;1.500;2023-04-24T05:49:18;12.50;;;3.92;;
62362;SDS011;48396;48.426;1.500;2023-04-24T05:51:43;11.45;;;4.13;;
62362;SDS011;48396;48.426;1.500;2023-04-24T05:54:09;9.40;;;4.00;;
62362;SDS011;48396;48.426;1.500;2023-04-24T05:56:37;7.97;;;3.97;;
62362;SDS011;48396;48.426;1.500;2023-04-24T05:59:02;6.47;;;3.70;;
62362;SDS011;48396;48.426;1.500;2023-04-24T06:01:28;10.98;;;4.22;;
62362;SDS011;48396;48.426;1.500;2023-04-24T06:03:54;9.00;;;4.25;;
62362;SDS011;48396;48.426;1.500;2023-04-24T06:06:20;9.48;;;4.05;;
62362;SDS011;48396;48.426;1.500;2023-04-24T06:08:45;9.23;;;3.67;;
62362;SDS011;48396;48.426;1.500;2023-04-24T06:11:11;9.73;;;3.80;;
62362;SDS011;48396;48.426;1.500;2023-04-24T06:13:37;11.52;;;3.88;;
62362;SDS011;48396;48.426;1.500;2023-04-24T06:16:02;7.45;;;3.67;;
62362;SDS011;48396;48.426;1.500;2023-04-24T06:18:28;9.93;;;4.35;;
62362;SDS011;48396;48.426;1.500;2023-04-24T06:20:54;9.32;;;4.10;;
62362;SDS011;48396;48.426;1.500;2023-04-24T06:23:20;10.35;;;4.45;;
62362;SDS011;48396;48.426;1.500;2023-04-24T06:25:46;12.70;;;4.35;;
62362;SDS011;48396;48.426;1.500;2023-04-24T06:28:12;10.52;;;4.22;;
62362;SDS011;48396;48.426;1.500;2023-04-24T06:30:37;8.50;;;4.15;;
62362;SDS011;48396;48.426;1.500;2023-04-24T06:33:03;11.88;;;4.50;;
62362;SDS011;48396;48.426;1.500;2023-04-24T06:35:28;11.45;;;4.38;;
62362;SDS011;48396;48.426;1.500;2023-04-24T06:37:54;12.23;;;4.72;;
62362;SDS011;48396;48.426;1.500;2023-04-24T06:40:38;11.80;;;5.18;;
62362;SDS011;48396;48.426;1.500;2023-04-24T06:43:04;16.42;;;6.50;;
62362;SDS011;48396;48.426;1.500;2023-04-24T06:45:29;10.00;;;4.53;;
62362;SDS011;48396;48.426;1.500;2023-04-24T06:48:14;11.48;;;4.20;;
62362;SDS011;48396;48.426;1.500;2023-04-24T06:50:40;10.90;;;4.18;;
62362;SDS011;48396;48.426;1.500;2023-04-24T06:53:05;9.70;;;3.95;;
62362;SDS011;48396;48.426;1.500;2023-04-24T06:55:31;13.05;;;4.38;;
62362;SDS011;48396;48.426;1.500;2023-04-24T06:57:56;9.13;;;3.83;;
62362;SDS011;48396;48.426;1.500;2023-04-24T07:03:25;13.07;;;4.78;;
62362;SDS011;48396;48.426;1.500;2023-04-24T07:05:51;8.70;;;3.90;;
62362;SDS011;48396;48.426;1.500;2023-04-24T07:08:17;12.48;;;4.20;;
62362;SDS011;48396;48.426;1.500;2023-04-24T07:10:43;8.25;;;4.13;;
62362;SDS011;48396;48.426;1.500;2023-04-24T07:13:09;13.00;;;4.40;;
62362;SDS011;48396;48.426;1.500;2023-04-24T07:15:35;12.05;;;4.65;;
62362;SDS011;48396;48.426;1.500;2023-04-24T07:18:00;9.15;;;3.95;;
62362;SDS011;48396;48.426;1.500;2023-04-24T07:20:26;12.63;;;4.65;;
62362;SDS011;48396;48.426;1.500;2023-04-24T07:22:52;11.60;;;4.40;;
62362;SDS011;48396;48.426;1.500;2023-04-24T07:25:18;9.40;;;4.68;;
62362;SDS011;48396;48.426;1.500;2023-04-24T07:27:44;15.50;;;5.28;;
62362;SDS011;48396;48.426;1.500;2023-04-24T07:30:10;13.45;;;4.28;;
62362;SDS011;48396;48.426;1.500;2023-04-24T07:32:36;12.75;;;4.80;;
62362;SDS011;48396;48.426;1.500;2023-04-24T07:35:02;13.70;;;5.03;;
62362;SDS011;48396;48.426;1.500;2023-04-24T07:37:28;10.38;;;4.40;;
62362;SDS011;48396;48.426;1.500;2023-04-24T07:39:54;10.13;;;4.63;;
62362;SDS011;48396;48.426;1.500;2023-04-24T07:42:20;11.15;;;4.35;;
62362;SDS011;48396;48.426;1.500;2023-04-24T07:44:45;11.10;;;4.20;;
62362;SDS011;48396;48.426;1.500;2023-04-24T07:47:12;12.18;;;4.30;;
62362;SDS011;48396;48.426;1.500;2023-04-24T07:49:41;13.43;;;4.45;;
62362;SDS011;48396;48.426;1.500;2023-04-24T07:52:07;13.15;;;5.28;;
62362;SDS011;48396;48.426;1.500;2023-04-24T07:54:32;9.40;;;4.35;;
62362;SDS011;48396;48.426;1.500;2023-04-24T07:56:58;12.10;;;4.47;;
62362;SDS011;48396;48.426;1.500;2023-04-24T07:59:23;11.75;;;4.95;;
62362;SDS011;48396;48.426;1.500;2023-04-24T08:01:49;14.48;;;5.45;;
62362;SDS011;48396;48.426;1.500;2023-04-24T08:04:15;16.35;;;5.63;;
62362;SDS011;48396;48.426;1.500;2023-04-24T08:06:40;12.27;;;5.60;;
62362;SDS011;48396;48.426;1.500;2023-04-24T08:09:06;13.55;;;5.40;;
62362;SDS011;48396;48.426;1.500;2023-04-24T08:11:32;13.32;;;5.35;;
62362;SDS011;48396;48.426;1.500;2023-04-24T08:13:57;13.57;;;5.32;;
62362;SDS011;48396;48.426;1.500;2023-04-24T08:16:23;15.50;;;6.25;;
62362;SDS011;48396;48.426;1.500;2023-04-24T08:18:49;12.15;;;5.38;;
62362;SDS011;48396;48.426;1.500;2023-04-24T08:21:15;15.45;;;6.07;;
62362;SDS011;48396;48.426;1.500;2023-04-24T08:23:44;13.35;;;5.75;;
62362;SDS011;48396;48.426;1.500;2023-04-24T08:26:11;12.95;;;6.05;;
62362;SDS011;48396;48.426;1.500;2023-04-24T08:28:37;18.83;;;6.57;;
62362;SDS011;48396;48.426;1.500;2023-04-24T08:31:02;12.77;;;5.72;;
62362;SDS011;48396;48.426;1.500;2023-04-24T08:33:28;15.23;;;6.20;;
62362;SDS011;48396;48.426;1.500;2023-04-24T08:35:59;16.15;;;6.00;;
62362;SDS011;48396;48.426;1.500;2023-04-24T08:38:28;13.52;;;6.40;;
62362;SDS011;48396;48.426;1.500;2023-04-24T08:40:54;13.73;;;5.72;;
62362;SDS011;48396;48.426;1.500;2023-04-24T08:43:21;12.23;;;5.43;;
62362;SDS011;48396;48.426;1.500;2023-04-24T08:48:31;12.85;;;5.63;;
62362;SDS011;48396;48.426;1.500;2023-04-24T08:50:58;12.00;;;5.40;;
62362;SDS011;48396;48.426;1.500;2023-04-24T08:53:24;16.13;;;5.93;;
62362;SDS011;48396;48.426;1.500;2023-04-24T08:55:50;13.60;;;5.47;;
62362;SDS011;48396;48.426;1.500;2023-04-24T08:58:18;17.17;;;5.45;;
62362;SDS011;48396;48.426;1.500;2023-04-24T09:00:44;13.68;;;6.13;;
62362;SDS011;48396;48.426;1.500;2023-04-24T09:03:15;12.60;;;5.82;;
62362;SDS011;48396;48.426;1.500;2023-04-24T09:05:42;16.95;;;6.90;;
62362;SDS011;48396;48.426;1.500;2023-04-24T09:08:10;12.80;;;5.47;;
62362;SDS011;48396;48.426;1.500;2023-04-24T09:10:38;13.63;;;5.25;;
62362;SDS011;48396;48.426;1.500;2023-04-24T09:15:49;16.75;;;6.43;;
62362;SDS011;48396;48.426;1.500;2023-04-24T09:18:15;13.27;;;5.78;;
62362;SDS011;48396;48.426;1.500;2023-04-24T09:21:00;14.02;;;5.70;;
62362;SDS011;48396;48.426;1.500;2023-04-24T09:23:26;15.02;;;5.90;;
62362;SDS011;48396;48.426;1.500;2023-04-24T09:25:56;13.90;;;6.10;;
62362;SDS011;48396;48.426;1.500;2023-04-24T09:28:30;13.68;;;5.38;;
62362;SDS011;48396;48.426;1.500;2023-04-24T09:31:15;12.05;;;5.38;;
62362;SDS011;48396;48.426;1.500;2023-04-24T09:33:53;11.82;;;5.35;;
62362;SDS011;48396;48.426;1.500;2023-04-24T09:36:18;12.68;;;4.90;;
62362;SDS011;48396;48.426;1.500;2023-04-24T09:38:44;9.73;;;4.63;;
62362;SDS011;48396;48.426;1.500;2023-04-24T09:41:28;9.50;;;4.30;;
62362;SDS011;48396;48.426;1.500;2023-04-24T09:43:54;12.93;;;5.10;;
62362;SDS011;48396;48.426;1.500;2023-04-24T09:46:21;11.65;;;5.10;;
62362;SDS011;48396;48.426;1.500;2023-04-24T09:48:53;9.77;;;4.63;;
62362;SDS011;48396;48.426;1.500;2023-04-24T09:51:19;13.38;;;4.97;;
62362;SDS011;48396;48.426;1.500;2023-04-24T09:53:59;14.32;;;5.18;;
62362;SDS011;48396;48.426;1.500;2023-04-24T09:56:25;17.02;;;5.22;;
62362;SDS011;48396;48.426;1.500;2023-04-24T09:58:51;10.50;;;4.63;;
62362;SDS011;48396;48.426;1.500;2023-04-24T10:01:28;11.10;;;5.15;;
62362;SDS011;48396;48.426;1.500;2023-04-24T10:03:58;11.18;;;5.40;;
62362;SDS011;48396;48.426;1.500;2023-04-24T10:06:29;11.65;;;4.80;;
62362;SDS011;48396;48.426;1.500;2023-04-24T10:08:59;13.50;;;4.55;;
62362;SDS011;48396;48.426;1.500;2023-04-24T10:11:26;11.02;;;4.63;;
62362;SDS011;48396;48.426;1.500;2023-04-24T10:13:53;11.52;;;5.20;;
62362;SDS011;48396;48.426;1.500;2023-04-24T10:16:18;10.43;;;4.68;;
62362;SDS011;48396;48.426;1.500;2023-04-24T10:18:46;11.68;;;4.25;;
62362;SDS011;48396;48.426;1.500;2023-04-24T10:21:13;11.75;;;4.63;;
62362;SDS011;48396;48.426;1.500;2023-04-24T10:23:39;11.23;;;4.82;;
62362;SDS011;48396;48.426;1.500;2023-04-24T10:26:06;9.63;;;4.60;;
62362;SDS011;48396;48.426;1.500;2023-04-24T10:28:42;9.82;;;4.20;;
62362;SDS011;48396;48.426;1.500;2023-04-24T10:31:12;10.52;;;4.53;;
62362;SDS011;48396;48.426;1.500;2023-04-24T10:33:39;9.57;;;4.00;;
62362;SDS011;48396;48.426;1.500;2023-04-24T10:36:10;9.23;;;4.07;;
62362;SDS011;48396;48.426;1.500;2023-04-24T10:38:38;6.68;;;3.83;;
62362;SDS011;48396;48.426;1.500;2023-04-24T10:41:07;11.32;;;4.72;;
62362;SDS011;48396;48.426;1.500;2023-04-24T10:43:34;8.13;;;4.05;;
62362;SDS011;48396;48.426;1.500;2023-04-24T10:46:04;9.15;;;3.70;;
62362;SDS011;48396;48.426;1.500;2023-04-24T10:48:31;10.57;;;4.30;;
62362;SDS011;48396;48.426;1.500;2023-04-24T10:50:57;11.20;;;3.90;;
62362;SDS011;48396;48.426;1.500;2023-04-24T10:53:23;10.30;;;4.18;;
62362;SDS011;48396;48.426;1.500;2023-04-24T11:01:32;8.32;;;3.50;;
62362;SDS011;48396;48.426;1.500;2023-04-24T11:04:02;8.90;;;3.50;;
62362;SDS011;48396;48.426;1.500;2023-04-24T11:06:29;9.07;;;3.50;;
62362;SDS011;48396;48.426;1.500;2023-04-24T11:09:01;8.43;;;3.85;;
62362;SDS011;48396;48.426;1.500;2023-04-24T11:11:32;9.30;;;4.00;;
62362;SDS011;48396;48.426;1.500;2023-04-24T11:16:42;8.25;;;4.05;;
62362;SDS011;48396;48.426;1.500;2023-04-24T11:19:20;8.38;;;3.78;;
62362;SDS011;48396;48.426;1.500;2023-04-24T11:24:39;9.10;;;3.85;;
62362;SDS011;48396;48.426;1.500;2023-04-24T11:27:15;11.88;;;4.20;;
62362;SDS011;48396;48.426;1.500;2023-04-24T11:32:28;9.45;;;3.70;;
62362;SDS011;48396;48.426;1.500;2023-04-24T11:34:57;7.32;;;3.80;;
62362;SDS011;48396;48.426;1.500;2023-04-24T11:37:33;10.82;;;3.92;;
62362;SDS011;48396;48.426;1.500;2023-04-24T11:40:03;8.35;;;3.88;;
62362;SDS011;48396;48.426;1.500;2023-04-24T11:42:33;9.82;;;4.00;;
62362;SDS011;48396;48.426;1.500;2023-04-24T11:45:00;10.43;;;3.80;;
62362;SDS011;48396;48.426;1.500;2023-04-24T11:47:30;11.02;;;3.58;;
62362;SDS011;48396;48.426;1.500;2023-04-24T11:52:24;8.85;;;3.70;;
62362;SDS011;48396;48.426;1.500;2023-04-24T11:54:50;8.95;;;3.80;;
62362;SDS011;48396;48.426;1.500;2023-04-24T11:57:16;6.07;;;3.40;;
62362;SDS011;48396;48.426;1.500;2023-04-24T12:00:03;6.72;;;3.40;;
62362;SDS011;48396;48.426;1.500;2023-04-24T12:05:25;7.00;;;3.67;;
62362;SDS011;48396;48.426;1.500;2023-04-24T12:07:51;6.45;;;3.20;;
62362;SDS011;48396;48.426;1.500;2023-04-24T12:10:20;8.45;;;3.58;;
62362;SDS011;48396;48.426;1.500;2023-04-24T12:12:49;4.63;;;3.25;;
62362;SDS011;48396;48.426;1.500;2023-04-24T12:15:16;7.78;;;3.60;;
62362;SDS011;48396;48.426;1.500;2023-04-24T12:17:43;5.93;;;2.97;;
62362;SDS011;48396;48.426;1.500;2023-04-24T12:20:09;6.35;;;3.17;;
62362;SDS011;48396;48.426;1.500;2023-04-24T12:22:43;8.40;;;3.00;;
62362;SDS011;48396;48.426;1.500;2023-04-24T12:25:15;7.07;;;2.60;;
62362;SDS011;48396;48.426;1.500;2023-04-24T12:27:41;7.97;;;2.97;;
62362;SDS011;48396;48.426;1.500;2023-04-24T12:30:12;4.72;;;2.83;;
62362;SDS011;48396;48.426;1.500;2023-04-24T12:32:41;5.90;;;2.92;;
62362;SDS011;48396;48.426;1.500;2023-04-24T12:35:07;5.05;;;2.78;;
62362;SDS011;48396;48.426;1.500;2023-04-24T12:37:33;7.88;;;2.88;;
62362;SDS011;48396;48.426;1.500;2023-04-24T12:40:03;7.18;;;2.92;;
62362;SDS011;48396;48.426;1.500;2023-04-24T12:42:31;8.32;;;3.25;;
62362;SDS011;48396;48.426;1.500;2023-04-24T12:44:58;5.93;;;2.80;;
62362;SDS011;48396;48.426;1.500;2023-04-24T12:47:25;8.15;;;3.20;;
62362;SDS011;48396;48.426;1.500;2023-04-24T12:49:52;5.22;;;2.72;;
62362;SDS011;48396;48.426;1.500;2023-04-24T12:52:18;7.13;;;3.10;;
62362;SDS011;48396;48.426;1.500;2023-04-24T12:55:03;5.93;;;3.08;;
62362;SDS011;48396;48.426;1.500;2023-04-24T12:57:32;5.32;;;2.85;;
62362;SDS011;48396;48.426;1.500;2023-04-24T12:59:58;6.47;;;3.20;;
62362;SDS011;48396;48.426;1.500;2023-04-24T13:02:25;5.47;;;2.85;;
62362;SDS011;48396;48.426;1.500;2023-04-24T13:04:52;6.68;;;3.00;;
62362;SDS011;48396;48.426;1.500;2023-04-24T13:07:18;5.88;;;3.10;;
62362;SDS011;48396;48.426;1.500;2023-04-24T13:09:44;7.45;;;3.60;;
62362;SDS011;48396;48.426;1.500;2023-04-24T13:12:11;7.60;;;2.85;;
62362;SDS011;48396;48.426;1.500;2023-04-24T13:14:37;5.68;;;3.10;;
62362;SDS011;48396;48.426;1.500;2023-04-24T13:17:03;6.18;;;3.08;;
62362;SDS011;48396;48.426;1.500;2023-04-24T13:19:29;6.25;;;2.70;;
62362;SDS011;48396;48.426;1.500;2023-04-24T13:22:00;8.10;;;3.33;;
62362;SDS011;48396;48.426;1.500;2023-04-24T13:24:25;6.50;;;3.13;;
62362;SDS011;48396;48.426;1.500;2023-04-24T13:26:52;7.45;;;3.00;;
62362;SDS011;48396;48.426;1.500;2023-04-24T13:29:18;7.20;;;3.10;;
62362;SDS011;48396;48.426;1.500;2023-04-24T13:31:45;6.43;;;3.30;;
62362;SDS011;48396;48.426;1.500;2023-04-24T13:34:11;4.78;;;2.97;;
62362;SDS011;48396;48.426;1.500;2023-04-24T13:36:38;4.80;;;2.65;;
62362;SDS011;48396;48.426;1.500;2023-04-24T13:39:04;7.30;;;2.60;;
62362;SDS011;48396;48.426;1.500;2023-04-24T13:41:30;7.30;;;3.50;;
62362;SDS011;48396;48.426;1.500;2023-04-24T13:43:57;6.70;;;3.00;;
62362;SDS011;48396;48.426;1.500;2023-04-24T13:46:23;7.00;;;3.30;;
62362;SDS011;48396;48.426;1.500;2023-04-24T13:48:49;6.90;;;3.15;;
62362;SDS011;48396;48.426;1.500;2023-04-24T13:51:14;6.32;;;3.00;;
62362;SDS011;48396;48.426;1.500;2023-04-24T13:53:40;8.40;;;3.47;;
62362;SDS011;48396;48.426;1.500;2023-04-24T13:56:05;9.63;;;3.72;;
62362;SDS011;48396;48.426;1.500;2023-04-24T13:58:31;6.43;;;2.78;;
62362;SDS011;48396;48.426;1.500;2023-04-24T14:00:57;8.38;;;2.95;;
62362;SDS011;48396;48.426;1.500;2023-04-24T14:03:23;7.20;;;3.20;;
62362;SDS011;48396;48.426;1.500;2023-04-24T14:05:49;4.68;;;2.78;;
62362;SDS011;48396;48.426;1.500;2023-04-24T14:08:14;5.25;;;2.92;;
62362;SDS011;48396;48.426;1.500;2023-04-24T14:10:40;4.75;;;2.70;;
62362;SDS011;48396;48.426;1.500;2023-04-24T14:13:05;6.25;;;2.78;;
62362;SDS011;48396;48.426;1.500;2023-04-24T14:15:31;5.55;;;2.50;;
62362;SDS011;48396;48.426;1.500;2023-04-24T14:17:57;5.53;;;2.90;;
62362;SDS011;48396;48.426;1.500;2023-04-24T14:20:23;4.15;;;2.60;;
62362;SDS011;48396;48.426;1.500;2023-04-24T14:22:48;5.95;;;2.95;;
62362;SDS011;48396;48.426;1.500;2023-04-24T14:25:14;7.15;;;2.67;;
62362;SDS011;48396;48.426;1.500;2023-04-24T14:27:40;7.88;;;3.25;;
62362;SDS011;48396;48.426;1.500;2023-04-24T14:30:06;8.80;;;3.28;;
62362;SDS011;48396;48.426;1.500;2023-04-24T14:32:32;6.68;;;3.00;;
62362;SDS011;48396;48.426;1.500;2023-04-24T14:37:42;8.07;;;3.17;;
62362;SDS011;48396;48.426;1.500;2023-04-24T14:40:08;8.57;;;2.95;;
62362;SDS011;48396;48.426;1.500;2023-04-24T14:42:34;7.88;;;3.13;;
62362;SDS011;48396;48.426;1.500;2023-04-24T14:45:00;3.83;;;2.42;;
62362;SDS011;48396;48.426;1.500;2023-04-24T14:47:26;5.03;;;2.80;;
62362;SDS011;48396;48.426;1.500;2023-04-24T14:49:52;3.20;;;2.42;;
62362;SDS011;48396;48.426;1.500;2023-04-24T14:52:17;5.50;;;2.80;;
62362;SDS011;48396;48.426;1.500;2023-04-24T14:54:43;6.70;;;2.70;;
62362;SDS011;48396;48.426;1.500;2023-04-24T14:57:09;5.00;;;2.72;;
62362;SDS011;48396;48.426;1.500;2023-04-24T14:59:35;6.47;;;2.53;;
62362;SDS011;48396;48.426;1.500;2023-04-24T15:02:00;4.35;;;2.45;;
62362;SDS011;48396;48.426;1.500;2023-04-24T15:04:27;5.10;;;2.75;;
62362;SDS011;48396;48.426;1.500;2023-04-24T15:06:56;7.38;;;2.83;;
62362;SDS011;48396;48.426;1.500;2023-04-24T15:09:22;5.50;;;2.80;;
62362;SDS011;48396;48.426;1.500;2023-04-24T15:11:49;5.95;;;2.50;;